Time;durP1;ratioP1;P1;durP2;ratioP2;P2;SDS_P1;SDS_P2;PMS_P1;PMS_P2;Temp;Humidity;BMP_temperature;BMP_pressure;BME280_temperature;BME280_humidity;BME280_pressure;Samples;Min_cycle;Max_cycle;Signal;HPM_P1;HPM_P2
2024/04/12 00:03:17;;;;;;;17.25;10.15;;;;;;;12.41;100.00;101782.63;11198775;26;20472;-24
2024/04/12 00:08:19;;;;;;;18.15;10.27;;;;;;;12.40;100.00;101772.94;11198800;26;20525;-24
2024/04/12 00:13:20;;;;;;;28.95;10.30;;;;;;;12.43;100.00;101773.09;11200034;26;20548;-24
2024/04/12 00:18:26;;;;;;;21.23;10.32;;;;;;;12.41;100.00;101759.91;11167271;26;20000;-24
2024/04/12 00:23:32;;;;;;;17.42;9.80;;;;;;;12.40;100.00;101751.97;11197409;26;19999;-24
2024/04/12 00:28:34;;;;;;;20.75;10.23;;;;;;;12.41;100.00;101753.78;11199718;26;20432;-25
2024/04/12 00:33:35;;;;;;;16.27;9.73;;;;;;;12.39;100.00;101748.44;11199808;26;20003;-24
2024/04/12 00:38:36;;;;;;;20.00;10.48;;;;;;;12.37;100.00;101743.94;11200315;26;20000;-24
2024/04/12 00:43:49;;;;;;;17.85;9.15;;;;;;;12.36;100.00;101742.16;11198710;26;20019;-24
2024/04/12 00:48:52;;;;;;;18.45;10.00;;;;;;;12.31;100.00;101745.47;11195126;26;20004;-24
2024/04/12 00:53:57;;;;;;;18.42;10.05;;;;;;;12.30;100.00;101738.47;11192058;26;21531;-24
2024/04/12 00:59:01;;;;;;;18.95;9.88;;;;;;;12.32;100.00;101741.13;11198009;26;20047;-24
2024/04/12 01:04:02;;;;;;;18.00;9.45;;;;;;;12.31;100.00;101735.00;11199360;26;20000;-24
2024/04/12 01:09:11;;;;;;;17.48;9.90;;;;;;;12.27;100.00;101735.69;11199793;26;19999;-24
2024/04/12 01:14:12;;;;;;;17.05;9.80;;;;;;;12.28;100.00;101731.34;11192523;26;20010;-24
2024/04/12 01:19:13;;;;;;;22.30;10.18;;;;;;;12.24;100.00;101724.13;11198586;26;20498;-24
2024/04/12 01:24:16;;;;;;;18.33;9.93;;;;;;;12.24;100.00;101727.69;11198528;26;19999;-24
2024/04/12 01:29:19;;;;;;;20.45;10.13;;;;;;;12.24;100.00;101718.91;11196672;26;19996;-24
2024/04/12 01:34:21;;;;;;;17.33;10.20;;;;;;;12.24;100.00;101724.13;11198072;26;20037;-24
2024/04/12 01:39:22;;;;;;;17.98;10.57;;;;;;;12.22;100.00;101718.84;11198308;26;19999;-24
2024/04/12 01:44:26;;;;;;;22.63;10.48;;;;;;;12.25;100.00;101712.84;11192321;26;19999;-24
2024/04/12 01:49:30;;;;;;;21.42;10.57;;;;;;;12.25;100.00;101715.47;11196242;26;20003;-24
2024/04/12 01:54:32;;;;;;;20.13;10.25;;;;;;;12.23;100.00;101707.50;11167434;26;20407;-24
2024/04/12 01:59:33;;;;;;;19.70;10.98;;;;;;;12.24;100.00;101704.09;11197661;26;20018;-24
2024/04/12 02:04:35;;;;;;;21.55;10.90;;;;;;;12.26;100.00;101698.91;11194644;26;20014;-24
2024/04/12 02:09:40;;;;;;;20.83;10.43;;;;;;;12.29;100.00;101696.44;11196701;26;20453;-24
2024/04/12 02:14:42;;;;;;;18.85;9.80;;;;;;;12.29;100.00;101686.84;11196421;26;19995;-24
2024/04/12 02:19:46;;;;;;;17.65;9.75;;;;;;;12.29;100.00;101697.31;11193777;26;20011;-24
2024/04/12 02:24:48;;;;;;;22.35;10.65;;;;;;;12.28;100.00;101692.03;11196677;26;20003;-24
2024/04/12 02:29:49;;;;;;;18.95;9.90;;;;;;;12.29;100.00;101699.03;11195923;26;20009;-24
2024/04/12 02:34:50;;;;;;;16.30;9.63;;;;;;;12.31;100.00;101697.41;11196479;26;19995;-24
2024/04/12 02:39:53;;;;;;;15.20;9.13;;;;;;;12.30;100.00;101696.50;11190293;26;20399;-24
2024/04/12 02:44:55;;;;;;;18.40;9.50;;;;;;;12.31;100.00;101681.69;11195774;26;20000;-24
2024/04/12 02:49:57;;;;;;;18.02;9.07;;;;;;;12.32;100.00;101670.34;11196010;26;19995;-24
2024/04/12 02:54:58;;;;;;;16.40;8.27;;;;;;;12.29;100.00;101664.97;11187858;26;20018;-24
2024/04/12 02:59:59;;;;;;;15.55;8.20;;;;;;;12.29;100.00;101658.00;11199213;26;19995;-24
2024/04/12 03:05:01;;;;;;;15.20;7.90;;;;;;;12.31;100.00;101652.84;11202637;26;20014;-24
2024/04/12 03:10:06;;;;;;;14.07;7.38;;;;;;;12.31;100.00;101653.72;11200601;26;20003;-24
2024/04/12 03:15:10;;;;;;;12.60;7.13;;;;;;;12.32;100.00;101652.00;11202349;26;19996;-24
2024/04/12 03:20:13;;;;;;;14.30;7.40;;;;;;;12.30;100.00;101662.44;11202591;26;20000;-24
2024/04/12 03:25:15;;;;;;;11.35;7.35;;;;;;;12.35;100.00;101660.00;11201573;26;20004;-24
2024/04/12 03:30:16;;;;;;;14.77;7.45;;;;;;;12.36;100.00;101666.13;11201497;26;20015;-24
2024/04/12 03:35:20;;;;;;;11.88;7.30;;;;;;;12.34;100.00;101671.31;11201819;26;20448;-24
2024/04/12 03:40:21;;;;;;;14.52;8.05;;;;;;;12.35;100.00;101662.63;11201841;26;20004;-24
2024/04/12 03:45:24;;;;;;;11.65;7.50;;;;;;;12.29;100.00;101660.63;11199438;26;20352;-24
2024/04/12 03:50:30;;;;;;;14.43;8.00;;;;;;;12.29;100.00;101659.72;11201258;26;20415;-23
2024/04/12 03:55:31;;;;;;;16.45;7.82;;;;;;;12.30;100.00;101657.19;11201462;26;20003;-24
2024/04/12 04:00:38;;;;;;;14.48;7.82;;;;;;;12.32;100.00;101652.91;11200915;26;20016;-24
2024/04/12 04:05:41;;;;;;;15.25;7.63;;;;;;;12.31;100.00;101658.97;11190872;26;20003;-24
2024/04/12 04:10:49;;;;;;;13.77;7.72;;;;;;;12.30;100.00;101662.44;11200141;26;20015;-25
2024/04/12 04:15:50;;;;;;;13.02;8.10;;;;;;;12.30;100.00;101661.50;11195525;26;20027;-25
2024/04/12 04:20:51;;;;;;;14.88;7.65;;;;;;;12.37;100.00;101662.69;11200826;26;20457;-25
2024/04/12 04:25:53;;;;;;;12.65;7.45;;;;;;;12.34;100.00;101670.41;11168913;26;20003;-24
2024/04/12 04:30:54;;;;;;;12.27;7.35;;;;;;;12.33;100.00;101669.50;11197022;26;20348;-24
2024/04/12 04:35:56;;;;;;;15.15;7.57;;;;;;;12.34;100.00;101658.22;11200368;26;20016;-24
2024/04/12 04:40:58;;;;;;;12.63;7.32;;;;;;;12.36;100.00;101655.66;11199477;26;20319;-24
2024/04/12 04:46:25;;;;;;;11.80;7.05;;;;;;;12.36;100.00;101648.69;11200100;26;19999;-24
2024/04/12 04:51:24;;;;;;;13.10;7.22;;;;;;;12.34;100.00;101652.06;11168380;26;20116;-24
2024/04/12 04:56:28;;;;;;;13.65;7.05;;;;;;;12.36;100.00;101658.28;11195316;26;20014;-24
2024/04/12 05:01:29;;;;;;;12.30;7.45;;;;;;;12.37;100.00;101668.84;11198822;26;20014;-24
2024/04/12 05:06:30;;;;;;;15.40;7.88;;;;;;;12.34;100.00;101671.31;11199289;26;20345;-24
2024/04/12 05:11:31;;;;;;;14.68;8.57;;;;;;;12.36;100.00;101671.38;11194657;26;20000;-24
2024/04/12 05:16:33;;;;;;;15.77;8.13;;;;;;;12.34;100.00;101670.41;11199187;26;20012;-24
2024/04/12 05:21:45;;;;;;;14.23;8.18;;;;;;;12.40;100.00;101673.31;11196578;26;20011;-24
2024/04/12 05:26:46;;;;;;;14.82;8.10;;;;;;;12.39;100.00;101664.53;11189586;26;20000;-24
2024/04/12 05:31:47;;;;;;;15.20;8.27;;;;;;;12.41;100.00;101656.78;11198121;26;20018;-24
2024/04/12 05:36:48;;;;;;;15.45;8.88;;;;;;;12.40;100.00;101657.56;11198394;26;20461;-24
2024/04/12 05:41:53;;;;;;;16.30;8.18;;;;;;;12.38;100.00;101660.16;11197969;26;19999;-24
2024/04/12 05:46:54;;;;;;;14.45;8.75;;;;;;;12.41;100.00;101655.03;11198437;26;20007;-24
2024/04/12 05:51:55;;;;;;;18.45;9.10;;;;;;;12.43;100.00;101658.63;11195497;26;20000;-24
2024/04/12 05:56:56;;;;;;;17.75;9.40;;;;;;;12.43;100.00;101655.09;11197768;26;20004;-24
2024/04/12 06:02:01;;;;;;;17.13;9.77;;;;;;;12.45;100.00;101661.31;11197668;26;20036;-24
2024/04/12 06:07:11;;;;;;;19.05;10.73;;;;;;;12.48;100.00;101662.34;11198619;26;20091;-24
2024/04/12 06:12:15;;;;;;;22.15;11.07;;;;;;;12.50;100.00;101660.69;11197701;26;20000;-25
2024/04/12 06:17:17;;;;;;;21.52;12.02;;;;;;;12.54;100.00;101664.34;11198750;26;20329;-26
2024/04/12 06:22:20;;;;;;;25.58;13.20;;;;;;;12.56;100.00;101660.09;11194765;26;20084;-25
2024/04/12 06:27:29;;;;;;;26.45;13.30;;;;;;;12.58;100.00;101655.78;11196984;26;20000;-25
2024/04/12 06:32:30;;;;;;;25.00;13.07;;;;;;;12.58;100.00;101666.28;11197712;26;20000;-25
2024/04/12 06:37:32;;;;;;;20.25;10.80;;;;;;;12.57;100.00;101660.97;11202725;26;20035;-25
2024/04/12 06:42:35;;;;;;;16.58;9.63;;;;;;;12.54;100.00;101669.59;11203373;26;20010;-26
2024/04/12 06:47:41;;;;;;;14.70;7.95;;;;;;;12.54;100.00;101656.47;11203653;26;20003;-25
2024/04/12 06:52:44;;;;;;;16.50;7.82;;;;;;;12.55;100.00;101660.88;11202157;26;19996;-26
2024/04/12 06:57:45;;;;;;;15.40;7.30;;;;;;;12.57;100.00;101668.84;11202466;26;20018;-25
2024/04/12 07:02:49;;;;;;;12.68;6.47;;;;;;;12.54;100.00;101672.22;11195358;26;20326;-26
2024/04/12 07:07:51;;;;;;;10.25;6.05;;;;;;;12.59;100.00;101664.53;11203137;26;20061;-25
2024/04/12 07:12:55;;;;;;;13.32;6.45;;;;;;;12.59;100.00;101665.47;11202620;26;20003;-25
2024/04/12 07:17:58;;;;;;;11.73;5.75;;;;;;;12.60;100.00;101674.22;11171192;26;19999;-26
2024/04/12 07:22:59;;;;;;;14.48;6.25;;;;;;;12.54;100.00;101670.50;11202114;26;20017;-25
2024/04/12 07:28:00;;;;;;;10.02;6.07;;;;;;;12.53;100.00;101684.44;11201678;26;20003;-25
2024/04/12 07:33:05;;;;;;;10.52;5.82;;;;;;;12.53;100.00;101675.69;11196954;26;20460;-26
2024/04/12 07:38:08;;;;;;;9.45;5.20;;;;;;;12.53;100.00;101678.31;11201013;26;20004;-25
2024/04/12 07:43:10;;;;;;;10.20;4.90;;;;;;;12.51;100.00;101675.59;11192393;26;20455;-25
2024/04/12 07:48:11;;;;;;;8.02;4.30;;;;;;;12.64;100.00;101699.75;11199861;26;20391;-25
2024/04/12 07:53:25;;;;;;;8.07;4.53;;;;;;;12.79;100.00;101700.44;11200200;26;20369;-25
2024/04/12 07:58:34;;;;;;;7.05;3.78;;;;;;;12.80;100.00;101698.69;11192465;26;20337;-25
2024/04/12 08:03:39;;;;;;;6.65;3.50;;;;;;;12.70;100.00;101698.28;11194095;26;20450;-25
2024/04/12 08:08:46;;;;;;;4.95;3.38;;;;;;;12.72;100.00;101694.03;11199898;26;20003;-25
2024/04/12 08:13:50;;;;;;;9.90;3.83;;;;;;;12.73;100.00;101692.28;11193459;26;20021;-25
2024/04/12 08:18:54;;;;;;;10.85;4.75;;;;;;;12.72;100.00;101712.38;11192752;26;20442;-25
2024/04/12 08:23:56;;;;;;;11.02;5.40;;;;;;;12.70;100.00;101700.91;11199250;26;20412;-25
2024/04/12 08:28:57;;;;;;;10.10;5.22;;;;;;;12.79;100.00;101710.94;11193306;26;19996;-25
2024/04/12 08:33:58;;;;;;;13.52;6.50;;;;;;;12.86;100.00;101710.34;11166507;26;20464;-25
2024/04/12 08:39:25;;;;;;;15.23;7.38;;;;;;;12.81;100.00;101705.72;11197490;26;20007;-25
2024/04/12 08:44:30;;;;;;;16.83;6.95;;;;;;;12.90;100.00;101691.28;11192430;26;20356;-25
2024/04/12 08:49:32;;;;;;;15.45;7.22;;;;;;;13.16;100.00;101684.56;11198002;26;20011;-25
2024/04/12 08:54:33;;;;;;;16.95;7.88;;;;;;;13.66;100.00;101677.88;11137869;26;20009;-25
2024/04/12 08:59:34;;;;;;;13.18;6.38;;;;;;;13.97;100.00;101679.09;11135407;26;20008;-25
2024/04/12 09:04:39;;;;;;;12.05;5.78;;;;;;;14.03;100.00;101678.44;11196669;26;20006;-25
2024/04/12 09:09:45;;;;;;;9.43;5.55;;;;;;;13.93;100.00;101678.09;11194552;26;20073;-25
2024/04/12 09:14:46;;;;;;;10.18;5.32;;;;;;;14.05;100.00;101677.66;11159777;26;20471;-25
2024/04/12 09:19:50;;;;;;;10.65;5.35;;;;;;;13.98;100.00;101677.34;11196061;26;20438;-25
2024/04/12 09:24:55;;;;;;;13.05;5.85;;;;;;;13.90;100.00;101683.22;11185797;26;20542;-25
2024/04/12 09:29:59;;;;;;;12.45;7.32;;;;;;;13.92;100.00;101694.69;11196230;26;20000;-26
2024/04/12 09:35:02;;;;;;;12.25;7.32;;;;;;;13.92;100.00;101686.81;11137943;26;20012;-25
2024/04/12 09:40:04;;;;;;;11.82;6.95;;;;;;;14.07;100.00;101683.88;11133819;26;20097;-25
2024/04/12 09:45:08;;;;;;;14.80;6.80;;;;;;;14.20;100.00;101677.34;11164034;26;20014;-25
2024/04/12 10:38:32;;;;;;;12.45;7.55;;;;;;;14.95;100.00;101647.63;11201481;26;20333;-24
2024/04/12 10:43:36;;;;;;;14.43;8.07;;;;;;;14.94;100.00;101656.34;11168038;26;20003;-24
2024/04/12 10:48:44;;;;;;;15.88;8.00;;;;;;;14.84;100.00;101641.97;11201639;26;19995;-24
2024/04/12 10:53:49;;;;;;;16.48;9.00;;;;;;;14.89;100.00;101648.31;11196932;26;20015;-25
2024/04/12 10:58:56;;;;;;;18.48;10.05;;;;;;;14.96;100.00;101644.16;11196327;26;20003;-25
2024/04/12 11:03:57;;;;;;;20.42;12.45;;;;;;;14.98;100.00;101648.63;11201882;26;20011;-24
2024/04/12 11:08:59;;;;;;;24.83;13.98;;;;;;;15.01;100.00;101645.22;11199248;26;20058;-24
2024/04/12 11:14:03;;;;;;;24.25;14.23;;;;;;;15.23;100.00;101646.84;11170349;26;20035;-24
2024/04/12 11:35:15;;;;;;;24.80;15.13;;;;;;;15.54;100.00;101609.22;11197563;26;20014;-24
2024/04/12 11:40:20;;;;;;;26.38;15.38;;;;;;;15.67;100.00;101600.88;11199592;26;20360;-24
2024/04/12 11:45:25;;;;;;;25.85;15.77;;;;;;;15.56;100.00;101596.94;11201632;26;20015;-24
2024/04/12 11:50:26;;;;;;;29.13;15.05;;;;;;;15.56;100.00;101587.31;11195069;26;20013;-24
2024/04/12 11:55:28;;;;;;;22.10;14.75;;;;;;;15.68;100.00;101586.81;11201103;26;20000;-24
2024/04/12 12:00:31;;;;;;;26.58;14.45;;;;;;;15.86;100.00;101580.31;11197645;26;19991;-24
2024/04/12 12:05:37;;;;;;;24.23;13.40;;;;;;;15.89;100.00;101575.13;11201899;26;20476;-24
2024/04/12 12:10:38;;;;;;;19.13;12.23;;;;;;;15.93;100.00;101563.84;11201246;26;20402;-24
2024/04/12 12:15:42;;;;;;;22.40;12.52;;;;;;;15.99;100.00;101558.75;11170713;26;20007;-25
2024/04/12 12:20:46;;;;;;;22.27;11.90;;;;;;;16.06;100.00;101567.72;11170459;26;20072;-24
2024/04/12 12:25:51;;;;;;;19.13;10.48;;;;;;;16.18;100.00;101554.88;11195757;26;19996;-25
2024/04/12 12:30:54;;;;;;;14.82;9.32;;;;;;;16.34;100.00;101554.44;11200034;26;20014;-24
2024/04/12 12:35:55;;;;;;;18.58;8.60;;;;;;;16.51;100.00;101543.44;11195916;26;19999;-24
2024/04/12 12:40:57;;;;;;;14.02;7.85;;;;;;;16.76;100.00;101547.66;11199754;26;20073;-24
2024/04/12 12:46:00;;;;;;;13.35;7.80;;;;;;;16.68;100.00;101552.69;11194582;26;20341;-24
2024/04/12 12:51:01;;;;;;;13.73;7.13;;;;;;;16.65;100.00;101565.81;11199846;26;20017;-24
2024/04/12 12:56:02;;;;;;;13.68;6.97;;;;;;;16.72;100.00;101562.50;11196141;26;20004;-24
2024/04/12 13:01:07;;;;;;;9.82;6.30;;;;;;;16.57;100.00;101544.50;11197475;26;20014;-24
2024/04/12 13:06:08;;;;;;;14.80;8.25;;;;;;;16.46;100.00;101546.88;11192927;26;20292;-24
2024/04/12 13:11:09;;;;;;;10.65;6.25;;;;;;;16.33;100.00;101536.81;11197853;26;20028;-24
2024/04/12 13:16:15;;;;;;;11.75;7.18;;;;;;;16.30;100.00;101541.13;11197988;26;19999;-24
2024/04/12 13:21:17;;;;;;;12.75;7.13;;;;;;;16.29;100.00;101545.50;11192227;26;20009;-25
2024/04/12 13:26:25;;;;;;;14.73;7.03;;;;;;;16.31;100.00;101527.97;11198110;26;20069;-24
2024/04/12 13:31:29;;;;;;;12.93;7.25;;;;;;;16.40;100.00;101529.97;11197827;26;20010;-25
2024/04/12 13:36:31;;;;;;;12.73;7.47;;;;;;;16.59;100.00;101516.41;11194918;26;20384;-25
2024/04/12 13:41:34;;;;;;;10.85;7.30;;;;;;;16.87;100.00;101518.03;11195806;26;20019;-24
2024/04/12 13:51:55;;;;;;;16.23;9.98;;;;;;;17.25;100.00;101504.81;11191797;26;20433;-24
2024/04/12 13:56:56;;;;;;;17.25;10.90;;;;;;;17.50;100.00;101495.66;11193271;26;19996;-24
2024/04/12 14:01:58;;;;;;;14.05;10.40;;;;;;;17.66;100.00;101480.13;11195799;26;20000;-25
2024/04/12 14:07:00;;;;;;;16.17;10.48;;;;;;;17.82;100.00;101475.25;11196135;26;20015;-24
2024/04/12 14:12:01;;;;;;;15.98;10.90;;;;;;;17.95;100.00;101481.66;11193783;26;20000;-24
2024/04/12 14:17:05;;;;;;;17.58;10.45;;;;;;;17.74;100.00;101471.50;11169646;26;20000;-24
2024/04/12 14:22:06;;;;;;;15.13;9.85;;;;;;;17.53;100.00;101460.47;11158493;26;20022;-24
2024/04/12 14:27:07;;;;;;;14.25;8.93;;;;;;;17.80;100.00;101454.91;11192999;26;19995;-24
2024/04/12 14:32:11;;;;;;;11.57;8.40;;;;;;;17.62;100.00;101464.19;11194523;26;20674;-24
2024/04/12 14:37:15;;;;;;;13.88;8.57;;;;;;;17.52;100.00;101453.41;11195190;26;19995;-24
2024/04/12 14:42:20;;;;;;;13.05;8.90;;;;;;;17.49;100.00;101445.44;11194140;26;20014;-25
2024/04/12 14:47:21;;;;;;;12.98;8.25;;;;;;;17.76;100.00;101443.34;11191174;26;20438;-25
2024/04/12 14:52:23;;;;;;;16.08;9.82;;;;;;;17.70;100.00;101440.59;11193744;26;20015;-25
2024/04/12 14:57:24;;;;;;;16.15;10.05;;;;;;;17.63;100.00;101436.94;11202700;26;19999;-24
2024/04/12 15:55:23;;;;;;;12.40;6.78;;;;;;;17.52;100.00;101377.66;11156890;26;20010;-24
2024/04/12 16:11:05;;;;;;;22.35;14.50;;;;;;;17.67;100.00;101377.06;11199082;26;20034;-24
2024/04/12 16:16:06;;;;;;;12.43;7.30;;;;;;;17.62;100.00;101376.06;11356675;20;20109;-34
2024/04/12 16:21:07;;;;;;;12.00;7.38;;;;;;;17.62;100.00;101369.03;11110297;26;20012;-33
2024/04/12 16:26:10;;;;;;;15.98;7.22;;;;;;;17.69;100.00;101358.56;11090338;26;20007;-34
2024/04/12 16:31:11;;;;;;;12.20;7.25;;;;;;;17.82;100.00;101361.53;11088387;26;20086;-33
2024/04/12 16:36:12;;;;;;;16.17;7.25;;;;;;;18.03;100.00;101357.47;11086242;26;20004;-34
2024/04/12 16:41:13;;;;;;;12.70;6.85;;;;;;;18.06;100.00;101358.41;11091615;26;20333;-33
2024/04/12 16:46:15;;;;;;;12.25;6.80;;;;;;;17.95;100.00;101353.78;11083301;26;20000;-34
2024/04/12 16:51:18;;;;;;;10.60;6.80;;;;;;;17.75;100.00;101350.75;11087070;26;20004;-33
2024/04/12 16:56:21;;;;;;;13.82;6.72;;;;;;;17.51;100.00;101351.22;11088768;26;20000;-34
2024/04/12 17:01:23;;;;;;;20.85;14.60;;;;;;;17.38;100.00;101348.31;11086167;26;20004;-33
2024/04/12 17:06:27;;;;;;;40.05;20.08;;;;;;;17.28;100.00;101351.63;11082848;26;20012;-34
2024/04/12 17:11:28;;;;;;;50.00;12.55;;;;;;;17.19;100.00;101338.25;11088686;26;20025;-33
2024/04/12 17:16:29;;;;;;;218.57;41.20;;;;;;;17.15;100.00;101342.56;11087093;26;20464;-33
2024/04/12 17:21:31;;;;;;;25.60;9.88;;;;;;;17.12;100.00;101339.84;11086099;26;20016;-33
2024/04/12 17:26:32;;;;;;;17.23;9.25;;;;;;;17.09;100.00;101337.13;11088371;26;20015;-34
2024/04/12 17:31:33;;;;;;;18.33;8.60;;;;;;;17.07;100.00;101324.78;11089062;26;20335;-33
2024/04/12 17:36:34;;;;;;;14.32;8.63;;;;;;;17.04;100.00;101335.28;11085138;26;20079;-33
2024/04/12 17:41:39;;;;;;;17.65;10.45;;;;;;;16.99;100.00;101332.53;11086716;26;20027;-33
2024/04/12 17:46:41;;;;;;;16.83;9.77;;;;;;;16.92;100.00;101336.81;11089658;26;20015;-33
2024/04/12 17:51:42;;;;;;;15.85;8.95;;;;;;;16.87;100.00;101327.00;11079363;26;20013;-33
2024/04/12 17:56:43;;;;;;;13.85;9.30;;;;;;;16.81;100.00;101322.50;11088027;26;20315;-34
2024/04/12 18:01:44;;;;;;;15.48;9.65;;;;;;;16.77;100.00;101317.09;11084294;26;20093;-33
2024/04/12 18:06:45;;;;;;;15.93;8.73;;;;;;;16.68;100.00;101330.94;11084946;26;20008;-33
2024/04/12 18:11:47;;;;;;;16.20;8.10;;;;;;;16.58;100.00;101321.03;11078502;26;20396;-35
2024/04/12 18:16:48;;;;;;;14.63;7.53;;;;;;;16.49;100.00;101313.81;11083518;26;20067;-33
2024/04/12 18:21:49;;;;;;;12.90;7.65;;;;;;;16.43;100.00;101313.69;11083564;26;20032;-33
2024/04/12 18:26:50;;;;;;;14.57;7.57;;;;;;;16.37;100.00;101309.16;11092021;26;20001;-34
2024/04/12 18:31:58;;;;;;;11.55;7.25;;;;;;;16.32;100.00;101316.06;11088767;26;20058;-34
2024/04/12 18:47:39;;;;;;;13.13;7.07;;;;;;;16.28;100.00;101327.41;11085279;26;20004;-33
2024/04/12 18:52:40;;;;;;;12.65;7.40;;;;;;;16.26;100.00;101331.75;11094286;26;20001;-33
2024/04/12 18:57:42;;;;;;;10.98;7.00;;;;;;;16.23;100.00;101316.72;11090015;26;20454;-33
2024/04/12 19:02:47;;;;;;;13.95;7.95;;;;;;;16.21;100.00;101325.50;11090611;26;20047;-34
2024/04/12 19:07:50;;;;;;;14.30;7.90;;;;;;;16.16;100.00;101324.47;11091437;26;20013;-33
2024/04/12 19:12:51;;;;;;;13.75;7.90;;;;;;;16.10;100.00;101321.69;11080176;26;20005;-33
2024/04/12 19:17:52;;;;;;;17.13;8.23;;;;;;;16.08;100.00;101312.81;11055941;26;20011;-34
2024/04/12 19:22:54;;;;;;;13.52;7.95;;;;;;;16.05;100.00;101313.69;11086551;26;19997;-33
2024/04/12 19:27:55;;;;;;;15.57;8.35;;;;;;;16.01;100.00;101323.22;11092729;26;20339;-34
2024/04/12 19:32:56;;;;;;;12.82;7.97;;;;;;;15.97;100.00;101325.75;11091441;26;20004;-36
2024/04/12 19:37:57;;;;;;;13.27;8.40;;;;;;;15.95;100.00;101336.28;11092843;26;20001;-33
2024/04/12 19:42:58;;;;;;;13.27;7.82;;;;;;;15.91;100.00;101326.50;11064900;26;20082;-34
2024/04/12 19:48:00;;;;;;;15.32;8.13;;;;;;;15.87;100.00;101322.00;11089540;26;20001;-33
2024/04/12 19:53:02;;;;;;;12.57;7.55;;;;;;;15.82;100.00;101328.00;11084886;26;19993;-33
2024/04/12 19:58:03;;;;;;;15.35;7.80;;;;;;;15.80;100.00;101321.81;11093346;26;20004;-33
2024/04/12 20:03:05;;;;;;;14.20;8.20;;;;;;;15.71;100.00;101330.38;11084377;26;19996;-33
2024/04/12 20:08:06;;;;;;;14.50;8.25;;;;;;;15.65;100.00;101336.34;11087552;26;20045;-33
2024/04/12 20:13:08;;;;;;;15.82;9.02;;;;;;;15.60;100.00;101326.50;11089546;26;20345;-33
2024/04/12 20:18:09;;;;;;;15.15;9.15;;;;;;;15.56;100.00;101326.44;11088646;26;19996;-34
2024/04/12 20:23:10;;;;;;;15.50;8.82;;;;;;;15.56;100.00;101329.06;11089935;26;20441;-33
2024/04/12 20:28:11;;;;;;;14.57;9.45;;;;;;;15.50;100.00;101317.47;11090514;26;20011;-34
2024/04/12 20:33:22;;;;;;;16.42;9.55;;;;;;;15.44;100.00;101320.81;11058661;26;20081;-33
2024/04/12 20:38:23;;;;;;;13.55;9.18;;;;;;;15.38;100.00;101323.31;11089343;26;20000;-33
2024/04/12 20:43:24;;;;;;;17.88;9.60;;;;;;;15.36;100.00;101322.38;11089472;26;20011;-36
2024/04/12 20:48:26;;;;;;;16.75;10.13;;;;;;;15.30;100.00;101322.22;11094437;26;20004;-33
2024/04/12 20:53:27;;;;;;;16.70;9.95;;;;;;;15.24;100.00;101320.28;11088580;26;20028;-33
2024/04/12 20:58:28;;;;;;;19.33;10.73;;;;;;;15.24;100.00;101322.03;11087916;26;20000;-34
2024/04/12 21:03:31;;;;;;;15.90;10.00;;;;;;;15.22;100.00;101319.38;11087977;26;20008;-33
2024/04/12 21:08:32;;;;;;;19.95;10.30;;;;;;;15.20;100.00;101313.16;11086612;26;20001;-33
2024/04/12 21:13:33;;;;;;;18.58;10.18;;;;;;;15.22;100.00;101310.56;11094569;26;20330;-33
2024/04/12 21:18:36;;;;;;;19.75;10.55;;;;;;;15.19;100.00;101311.38;11090987;26;20005;-33
2024/04/12 21:23:38;;;;;;;18.85;10.65;;;;;;;15.19;100.00;101305.19;11093564;26;20405;-33
2024/04/12 21:28:39;;;;;;;15.68;10.60;;;;;;;15.18;100.00;101306.94;11090764;26;20015;-34
2024/04/12 21:33:40;;;;;;;17.95;10.57;;;;;;;15.12;100.00;101308.53;11085275;26;20001;-33
2024/04/12 21:38:42;;;;;;;18.63;10.32;;;;;;;15.09;100.00;101299.66;11086303;26;20446;-33
2024/04/12 21:43:45;;;;;;;19.50;10.63;;;;;;;15.11;100.00;101307.63;11089991;26;20362;-33
2024/04/12 21:48:47;;;;;;;16.27;10.65;;;;;;;15.07;100.00;101300.50;11085188;26;20082;-33
2024/04/12 21:53:48;;;;;;;21.98;11.00;;;;;;;15.03;100.00;101299.53;11083492;26;19997;-34
2024/04/12 21:58:49;;;;;;;19.98;11.23;;;;;;;15.01;100.00;101306.47;11083110;26;20008;-32
2024/04/12 22:03:51;;;;;;;17.65;11.25;;;;;;;14.99;100.00;101302.91;11084795;26;20007;-33
2024/04/12 22:08:54;;;;;;;16.58;10.57;;;;;;;14.98;100.00;101308.13;11094284;26;19996;-33
2024/04/12 22:13:56;;;;;;;18.17;10.95;;;;;;;14.95;100.00;101308.03;11085426;26;20075;-33
2024/04/12 22:18:58;;;;;;;20.30;10.93;;;;;;;14.96;100.00;101307.19;11121822;21;20080;-29
2024/04/12 22:23:59;;;;;;;21.00;10.60;;;;;;;14.96;100.00;101308.06;11257735;26;20023;-28
2024/04/12 22:29:00;;;;;;;18.55;10.45;;;;;;;14.97;100.00;101312.50;11228859;26;20454;-30
2024/04/12 22:34:01;;;;;;;19.42;10.88;;;;;;;14.94;100.00;101303.59;11240460;26;19995;-28
2024/04/12 22:39:02;;;;;;;16.45;9.80;;;;;;;14.92;100.00;101305.31;11251226;26;20361;-29
2024/04/12 22:44:04;;;;;;;15.60;10.27;;;;;;;14.91;100.00;101299.16;11252544;26;19995;-29
2024/04/12 22:49:05;;;;;;;16.60;10.43;;;;;;;14.93;100.00;101300.09;11246169;26;20006;-29
2024/04/12 22:54:06;;;;;;;18.75;11.00;;;;;;;14.91;100.00;101304.44;11242974;26;20017;-30
2024/04/12 22:59:07;;;;;;;18.73;11.15;;;;;;;14.89;100.00;101307.88;11252829;26;20447;-31
2024/04/12 23:04:08;;;;;;;18.23;10.23;;;;;;;14.85;100.00;101299.88;11222156;26;20016;-28
2024/04/12 23:09:09;;;;;;;16.83;10.32;;;;;;;14.91;100.00;101303.56;11255677;26;20011;-28
2024/04/12 23:14:12;;;;;;;20.00;10.10;;;;;;;14.86;100.00;101298.13;11240394;26;20069;-29
2024/04/12 23:19:13;;;;;;;18.88;10.82;;;;;;;14.84;100.00;101307.72;11248835;26;20000;-33
2024/04/12 23:24:14;;;;;;;18.88;10.48;;;;;;;14.82;100.00;101305.06;11243092;26;20012;-29
2024/04/12 23:29:15;;;;;;;16.02;10.35;;;;;;;14.78;100.00;101303.19;11239876;26;19996;-29
2024/04/12 23:34:16;;;;;;;20.52;10.27;;;;;;;14.73;100.00;101299.50;11239507;26;20328;-29
2024/04/12 23:39:17;;;;;;;19.58;10.98;;;;;;;14.71;100.00;101302.94;11241800;26;20447;-30
2024/04/12 23:44:19;;;;;;;19.33;11.25;;;;;;;14.66;100.00;101302.81;11261483;26;20010;-30
2024/04/12 23:49:20;;;;;;;19.55;11.27;;;;;;;14.60;100.00;101302.63;11248742;26;20008;-33
2024/04/12 23:54:21;;;;;;;21.48;10.88;;;;;;;14.62;100.00;101303.59;11248247;26;20013;-31
2024/04/12 23:59:22;;;;;;;17.83;10.63;;;;;;;14.57;100.00;101287.63;11235129;26;20010;-30
